Time;durP1;ratioP1;P1;durP2;ratioP2;P2;SDS_P1;SDS_P2;PMS_P1;PMS_P2;Temp;Humidity;BMP_temperature;BMP_pressure;BME280_temperature;BME280_humidity;BME280_pressure;Samples;Min_cycle;Max_cycle;Signal;HPM_P1;HPM_P2
2023/01/20 00:01:15;;;;;;;7.00;3.25;;;;;;;7.55;100.00;62776.94;4948058;29;20241;-79
2023/01/20 00:03:44;;;;;;;2.67;2.47;;;;;;;7.56;100.00;62781.00;4950738;29;20581;-78
2023/01/20 00:06:12;;;;;;;0.75;0.75;;;;;;;7.44;100.00;62768.63;4943914;29;20226;-77
2023/01/20 00:08:39;;;;;;;0.40;0.40;;;;;;;7.25;100.00;62743.94;4947938;29;20265;-77
2023/01/20 00:11:07;;;;;;;0.32;0.30;;;;;;;7.19;100.00;62740.31;4949713;29;20217;-78
2023/01/20 00:13:34;;;;;;;0.20;0.20;;;;;;;7.07;100.00;62730.97;4949556;29;20425;-77
2023/01/20 00:16:02;;;;;;;2.00;0.52;;;;;;;7.06;100.00;62723.84;4945322;29;20241;-77
2023/01/20 00:18:29;;;;;;;9.55;0.98;;;;;;;7.24;100.00;62745.47;4948369;29;20226;-78
2023/01/20 00:21:03;;;;;;;3.17;0.60;;;;;;;7.19;100.00;62737.78;4949360;29;20235;-77
2023/01/20 00:23:29;;;;;;;0.82;0.60;;;;;;;7.23;100.00;62738.84;4950712;29;20248;-78
2023/01/20 00:25:56;;;;;;;0.82;0.43;;;;;;;7.04;100.00;62722.28;4946970;29;20253;-77
2023/01/20 00:28:23;;;;;;;1.38;0.30;;;;;;;6.99;100.00;62719.66;4948620;29;20253;-78
2023/01/20 00:30:50;;;;;;;0.75;0.43;;;;;;;6.98;100.00;62721.16;4948536;29;20507;-78
2023/01/20 00:33:17;;;;;;;0.30;0.30;;;;;;;6.93;100.00;62708.41;4947145;29;21526;-77
2023/01/20 00:35:43;;;;;;;0.32;0.10;;;;;;;6.64;100.00;62681.53;4948306;29;20212;-77
2023/01/20 00:38:12;;;;;;;0.20;0.20;;;;;;;6.46;100.00;62665.00;4949348;29;20202;-78
2023/01/20 00:40:39;;;;;;;0.10;0.10;;;;;;;6.36;100.00;62657.75;4948329;29;20209;-78
2023/01/20 00:43:05;;;;;;;0.20;0.20;;;;;;;6.29;100.00;62647.47;4938307;29;20248;-78
2023/01/20 00:45:33;;;;;;;0.73;0.32;;;;;;;6.21;100.00;62644.81;4947089;29;20402;-78
2023/01/20 00:48:00;;;;;;;0.50;0.35;;;;;;;6.22;100.00;62638.25;4949018;29;20205;-78
2023/01/20 00:50:26;;;;;;;0.40;0.32;;;;;;;6.32;100.00;62651.06;4948802;29;20306;-78
2023/01/20 00:52:53;;;;;;;0.20;0.20;;;;;;;6.38;100.00;62651.69;4944275;29;20225;-78
2023/01/20 00:55:21;;;;;;;0.30;0.30;;;;;;;6.46;100.00;62660.47;4929516;29;20210;-78
2023/01/20 00:57:48;;;;;;;0.77;0.50;;;;;;;6.48;100.00;62667.06;4928665;29;20538;-78
2023/01/20 01:00:18;;;;;;;1.90;0.47;;;;;;;6.71;100.00;62688.25;4929297;29;20217;-78
2023/01/20 01:02:45;;;;;;;1.65;1.00;;;;;;;6.75;100.00;62694.91;4938595;29;20247;-81
2023/01/20 01:05:12;;;;;;;0.80;0.80;;;;;;;6.76;100.00;62695.94;4949262;29;20238;-78
2023/01/20 01:07:39;;;;;;;0.40;0.40;;;;;;;6.85;100.00;62702.69;4951105;29;20280;-78
2023/01/20 01:10:07;;;;;;;0.63;0.63;;;;;;;6.84;100.00;62704.72;4946430;29;20229;-78
2023/01/20 01:12:35;;;;;;;0.52;0.52;;;;;;;6.87;100.00;62709.81;4942794;29;20230;-78
2023/01/20 01:15:02;;;;;;;0.32;0.32;;;;;;;6.93;100.00;62714.00;4945560;29;20213;-78
2023/01/20 01:17:28;;;;;;;0.40;0.40;;;;;;;6.99;100.00;62717.66;4950669;29;20262;-78
2023/01/20 01:19:55;;;;;;;0.38;0.38;;;;;;;6.97;100.00;62718.13;4945583;29;20495;-78
2023/01/20 01:22:23;;;;;;;0.63;0.60;;;;;;;7.02;100.00;62725.81;4949182;29;20590;-78
2023/01/20 01:24:50;;;;;;;0.98;0.80;;;;;;;7.10;100.00;62731.00;4950781;29;20287;-80
2023/01/20 01:27:16;;;;;;;1.08;0.65;;;;;;;7.14;100.00;62729.56;4947820;29;20320;-78
2023/01/20 01:29:45;;;;;;;0.50;0.50;;;;;;;7.11;100.00;62726.47;4950721;29;20256;-77
2023/01/20 01:32:12;;;;;;;4.03;0.55;;;;;;;7.17;100.00;62735.19;4935374;29;20222;-79
2023/01/20 01:34:39;;;;;;;1.02;0.70;;;;;;;7.19;100.00;62740.31;4935800;29;20202;-78
2023/01/20 01:37:05;;;;;;;0.38;0.38;;;;;;;7.24;100.00;62745.47;4941707;29;20237;-78
2023/01/20 01:39:33;;;;;;;0.77;0.22;;;;;;;7.21;100.00;62739.31;4952131;29;20205;-79
2023/01/20 01:42:00;;;;;;;0.40;0.40;;;;;;;7.20;100.00;62741.31;4953964;29;20221;-79
2023/01/20 01:44:27;;;;;;;0.38;0.30;;;;;;;7.13;100.00;62734.09;4955329;29;20237;-79
2023/01/20 01:46:55;;;;;;;0.52;0.25;;;;;;;7.10;100.00;62731.00;4953386;29;20224;-79
2023/01/20 01:49:25;;;;;;;0.30;0.30;;;;;;;7.10;100.00;62731.00;4954586;29;20276;-77
2023/01/20 01:51:58;;;;;;;0.20;0.20;;;;;;;6.91;100.00;62709.41;4954744;29;20225;-80
2023/01/20 01:54:29;;;;;;;0.40;0.40;;;;;;;7.10;100.00;62731.00;4953379;29;20232;-78
2023/01/20 01:56:56;;;;;;;0.20;0.20;;;;;;;7.15;100.00;62733.63;4953390;29;20225;-79
2023/01/20 01:59:23;;;;;;;0.63;0.40;;;;;;;7.15;100.00;62735.66;4953829;29;20209;-78
2023/01/20 02:01:52;;;;;;;0.57;0.30;;;;;;;7.21;100.00;62741.84;4954869;29;20221;-78
2023/01/20 02:04:23;;;;;;;0.20;0.20;;;;;;;7.22;100.00;62742.88;4955075;29;20264;-79
2023/01/20 02:06:52;;;;;;;0.17;0.17;;;;;;;7.25;100.00;62743.94;4953431;29;20225;-79
2023/01/20 02:09:20;;;;;;;0.32;0.32;;;;;;;7.36;100.00;62754.78;4953120;29;20236;-78
2023/01/20 02:11:50;;;;;;;0.73;0.20;;;;;;;7.39;100.00;62755.34;4955606;29;20257;-80
2023/01/20 02:14:19;;;;;;;0.10;0.10;;;;;;;7.38;100.00;62757.38;4952427;29;20228;-80
2023/01/20 02:16:59;;;;;;;0.17;0.17;;;;;;;7.39;100.00;62760.94;4948238;29;20241;-79
2023/01/20 02:19:59;;;;;;;0.73;0.30;;;;;;;7.38;100.00;62759.91;4935768;29;20238;-79
2023/01/20 02:22:36;;;;;;;0.90;0.90;;;;;;;7.30;100.00;62751.13;4941909;29;20241;-81
2023/01/20 02:25:39;;;;;;;0.90;0.90;;;;;;;7.23;100.00;62741.88;4954312;29;20223;-79
2023/01/20 02:28:38;;;;;;;0.65;0.65;;;;;;;7.16;100.00;62736.69;4949295;29;20216;-79
2023/01/20 02:31:30;;;;;;;0.40;0.40;;;;;;;6.98;100.00;62716.63;4950682;29;20240;-79
2023/01/20 02:34:03;;;;;;;0.60;0.60;;;;;;;6.97;100.00;62717.59;4941975;29;20562;-80
2023/01/20 02:36:37;;;;;;;1.60;0.70;;;;;;;6.95;100.00;62713.50;4946925;29;20225;-79
2023/01/20 02:39:13;;;;;;;0.70;0.70;;;;;;;6.89;100.00;62709.88;4953989;29;20193;-78
2023/01/20 02:41:48;;;;;;;1.00;0.70;;;;;;;6.86;100.00;62709.31;4935752;29;20241;-79
2023/01/20 02:44:23;;;;;;;0.30;0.30;;;;;;;6.82;100.00;62704.66;4951198;29;20240;-80
2023/01/20 02:46:57;;;;;;;0.63;0.63;;;;;;;6.89;100.00;62706.81;4953635;29;20534;-80
2023/01/20 02:49:31;;;;;;;1.55;0.43;;;;;;;6.84;100.00;62704.19;4948096;29;20272;-79
2023/01/20 02:52:03;;;;;;;0.57;0.57;;;;;;;6.91;100.00;62708.88;4953916;29;20233;-81
2023/01/20 02:54:34;;;;;;;1.73;0.60;;;;;;;6.96;100.00;62716.56;4953454;29;20194;-80
2023/01/20 02:57:05;;;;;;;0.60;0.60;;;;;;;6.98;100.00;62721.69;4953497;29;20428;-80
2023/01/20 02:59:37;;;;;;;0.60;0.60;;;;;;;6.93;100.00;62716.53;4951720;29;20269;-77
2023/01/20 03:02:09;;;;;;;0.50;0.50;;;;;;;6.92;100.00;62710.44;4952815;29;20237;-82
2023/01/20 03:04:41;;;;;;;0.60;0.60;;;;;;;7.01;100.00;62721.72;4953837;29;20249;-79
2023/01/20 03:07:11;;;;;;;0.85;0.85;;;;;;;6.99;100.00;62722.19;4953514;29;20229;-80
2023/01/20 03:09:42;;;;;;;0.38;0.38;;;;;;;7.01;100.00;62722.25;4953544;29;20221;-80
2023/01/20 03:12:15;;;;;;;1.27;0.70;;;;;;;7.00;100.00;62718.16;4952714;29;20225;-82
2023/01/20 03:14:42;;;;;;;0.65;0.50;;;;;;;7.09;100.00;62732.00;4955351;29;20224;-79
2023/01/20 03:17:09;;;;;;;0.70;0.63;;;;;;;6.97;100.00;62717.59;4956567;28;20592;-78
2023/01/20 03:19:38;;;;;;;0.52;0.52;;;;;;;7.10;100.00;62733.53;4953053;29;20205;-80
2023/01/20 03:22:06;;;;;;;0.75;0.60;;;;;;;7.15;100.00;62736.16;4951995;29;20237;-80
2023/01/20 03:24:36;;;;;;;1.00;0.60;;;;;;;7.12;100.00;62725.47;4952913;29;20248;-79
2023/01/20 03:27:03;;;;;;;0.63;0.63;;;;;;;6.98;100.00;62716.09;4941246;29;20236;-78
2023/01/20 03:29:31;;;;;;;0.95;0.60;;;;;;;6.98;100.00;62718.63;4951288;29;20209;-79
2023/01/20 03:32:00;;;;;;;1.40;0.80;;;;;;;6.81;100.00;62704.16;4952495;29;20233;-79
2023/01/20 03:34:30;;;;;;;1.90;0.90;;;;;;;6.77;100.00;62700.03;4949867;29;20209;-79
2023/01/20 03:37:00;;;;;;;2.95;0.93;;;;;;;6.78;100.00;62701.03;4951335;29;20236;-78
2023/01/20 03:39:28;;;;;;;1.65;0.82;;;;;;;6.86;100.00;62706.78;4949185;29;20236;-78
2023/01/20 03:42:07;;;;;;;0.73;0.55;;;;;;;6.87;100.00;62704.75;4950230;29;20810;-80
2023/01/20 03:44:45;;;;;;;2.78;0.70;;;;;;;6.90;100.00;62705.81;4938631;29;20241;-78
2023/01/20 03:47:19;;;;;;;3.08;0.80;;;;;;;6.96;100.00;62712.03;4932071;29;20240;-78
2023/01/20 03:49:54;;;;;;;0.50;0.50;;;;;;;6.90;100.00;62708.34;4931322;29;20190;-79
2023/01/20 03:52:32;;;;;;;1.27;0.65;;;;;;;6.85;100.00;62705.72;4933035;29;20233;-78
2023/01/20 03:55:03;;;;;;;4.40;0.52;;;;;;;6.84;100.00;62704.72;4931256;29;20240;-78
2023/01/20 03:57:37;;;;;;;4.85;0.60;;;;;;;6.75;100.00;62695.41;4946010;29;20223;-78
2023/01/20 04:00:09;;;;;;;2.25;0.80;;;;;;;6.79;100.00;62702.09;4949614;29;20193;-78
2023/01/20 04:02:38;;;;;;;0.60;0.55;;;;;;;6.76;100.00;62696.47;4933470;29;20236;-80
2023/01/20 04:05:07;;;;;;;0.30;0.30;;;;;;;6.69;100.00;62688.72;4949651;29;20209;-78
2023/01/20 04:07:37;;;;;;;0.40;0.20;;;;;;;6.70;100.00;62687.75;4949662;29;20237;-77
2023/01/20 04:10:11;;;;;;;0.30;0.30;;;;;;;6.64;100.00;62686.59;4948635;29;20229;-78
2023/01/20 04:12:38;;;;;;;1.77;0.30;;;;;;;6.68;100.00;62688.19;4951163;29;20229;-78
2023/01/20 04:15:07;;;;;;;0.38;0.38;;;;;;;6.69;100.00;62686.72;4942116;29;20202;-79
2023/01/20 04:17:34;;;;;;;0.88;0.35;;;;;;;6.69;100.00;62688.72;4951113;29;20236;-77
2023/01/20 04:20:05;;;;;;;0.20;0.20;;;;;;;6.69;100.00;62686.19;4937807;29;20222;-78
2023/01/20 04:22:38;;;;;;;0.57;0.43;;;;;;;6.71;100.00;62690.78;4931921;29;20226;-79
2023/01/20 04:25:14;;;;;;;0.60;0.43;;;;;;;6.79;100.00;62697.03;4939978;29;20241;-78
2023/01/20 04:27:41;;;;;;;0.57;0.30;;;;;;;6.75;100.00;62694.91;4947200;29;20233;-79
2023/01/20 04:30:09;;;;;;;3.88;0.70;;;;;;;6.85;100.00;62707.75;4951055;29;20202;-78
2023/01/20 04:32:36;;;;;;;0.50;0.50;;;;;;;6.78;100.00;62698.50;4950344;29;20233;-78
2023/01/20 04:35:03;;;;;;;3.92;0.90;;;;;;;6.82;100.00;62699.59;4949368;29;20212;-79
2023/01/20 04:37:30;;;;;;;1.40;0.95;;;;;;;6.88;100.00;62710.84;4947641;29;20251;-79
2023/01/20 04:39:58;;;;;;;2.63;1.08;;;;;;;6.81;100.00;62699.09;4950352;29;20229;-77
2023/01/20 04:42:25;;;;;;;1.95;1.05;;;;;;;6.94;100.00;62714.50;4949223;29;20240;-80
2023/01/20 04:44:52;;;;;;;1.48;1.25;;;;;;;7.00;100.00;62718.16;4950266;29;20229;-78
2023/01/20 04:47:19;;;;;;;2.05;1.23;;;;;;;7.11;100.00;62731.53;4935531;29;20236;-78
2023/01/20 04:49:46;;;;;;;1.83;1.42;;;;;;;7.17;100.00;62732.66;4951290;29;20209;-79
2023/01/20 04:52:12;;;;;;;2.80;1.63;;;;;;;7.07;100.00;62727.94;4933412;29;20230;-81
2023/01/20 04:54:39;;;;;;;1.23;1.00;;;;;;;7.13;100.00;62731.06;4930345;29;20460;-78
2023/01/20 04:57:08;;;;;;;1.55;1.45;;;;;;;7.20;100.00;62740.81;4947104;29;20228;-80
2023/01/20 04:59:35;;;;;;;1.42;1.33;;;;;;;7.24;100.00;62742.41;4948231;29;20206;-78
2023/01/20 05:02:02;;;;;;;1.67;1.58;;;;;;;7.27;100.00;62745.50;4948825;29;20245;-80
2023/01/20 05:04:29;;;;;;;1.50;1.40;;;;;;;7.19;100.00;62735.25;4951106;29;20237;-79
2023/01/20 05:06:59;;;;;;;3.45;1.10;;;;;;;7.11;100.00;62729.50;4949578;29;20221;-80
2023/01/20 05:09:26;;;;;;;2.25;2.05;;;;;;;6.77;100.00;62700.03;4946723;29;20280;-79
2023/01/20 05:11:53;;;;;;;1.85;1.75;;;;;;;6.66;100.00;62685.63;4950690;29;20272;-79
2023/01/20 05:14:21;;;;;;;3.10;1.50;;;;;;;6.76;100.00;62693.94;4946001;29;20241;-79
2023/01/20 05:16:48;;;;;;;1.67;1.58;;;;;;;6.81;100.00;62699.09;4940210;29;20233;-81
2023/01/20 05:19:15;;;;;;;2.65;1.70;;;;;;;6.86;100.00;62709.31;4934846;29;20209;-79
2023/01/20 05:21:42;;;;;;;2.35;2.22;;;;;;;6.86;100.00;62709.31;4948589;29;20288;-78
2023/01/20 05:24:10;;;;;;;7.85;3.22;;;;;;;6.93;100.00;62714.00;4946893;29;20297;-81
2023/01/20 05:26:37;;;;;;;7.07;3.65;;;;;;;6.91;100.00;62711.41;4949790;29;20292;-80
2023/01/20 05:29:04;;;;;;;6.57;4.25;;;;;;;6.88;100.00;62710.84;4945676;29;20212;-80
2023/01/20 05:31:32;;;;;;;4.53;3.58;;;;;;;6.90;100.00;62710.88;4942824;29;20268;-81
2023/01/20 05:33:59;;;;;;;5.93;3.13;;;;;;;6.87;100.00;62707.28;4949073;29;20210;-80
2023/01/20 05:36:27;;;;;;;4.18;3.70;;;;;;;6.83;100.00;62706.19;4949916;29;20259;-81
2023/01/20 05:38:54;;;;;;;4.60;3.90;;;;;;;6.81;100.00;62698.56;4951858;29;20273;-81
2023/01/20 05:41:20;;;;;;;4.75;4.25;;;;;;;6.86;100.00;62703.72;4950695;29;20404;-79
2023/01/20 05:43:47;;;;;;;4.75;3.88;;;;;;;6.71;100.00;62688.75;4949998;29;20259;-79
2023/01/20 05:46:15;;;;;;;11.18;4.80;;;;;;;6.90;100.00;62708.34;4945970;29;20221;-79
2023/01/20 05:48:43;;;;;;;5.22;4.20;;;;;;;6.97;100.00;62715.59;4940027;29;20270;-79
2023/01/20 05:51:10;;;;;;;8.30;5.32;;;;;;;6.98;100.00;62721.69;4942794;29;20249;-81
2023/01/20 05:53:37;;;;;;;9.48;4.30;;;;;;;6.95;100.00;62721.09;4931644;29;20206;-80
2023/01/20 05:56:05;;;;;;;15.25;4.80;;;;;;;7.03;100.00;62726.84;4938545;29;20257;-80
2023/01/20 05:58:33;;;;;;;28.17;12.25;;;;;;;7.02;100.00;62723.28;4948930;29;20257;-80
2023/01/20 06:01:05;;;;;;;76.05;29.25;;;;;;;6.96;100.00;62717.09;4938596;29;20460;-79
2023/01/20 06:03:32;;;;;;;53.58;20.88;;;;;;;6.91;100.00;62709.41;4931470;29;20320;-78
2023/01/20 06:06:05;;;;;;;15.05;8.77;;;;;;;6.95;100.00;62723.63;4949545;29;20225;-80
2023/01/20 06:08:32;;;;;;;6.35;5.40;;;;;;;6.84;100.00;62706.72;4951837;29;20213;-80
2023/01/20 06:10:59;;;;;;;8.27;5.68;;;;;;;6.87;100.00;62710.31;4950109;29;20225;-79
2023/01/20 06:13:26;;;;;;;10.35;6.03;;;;;;;6.94;100.00;62711.97;4948899;29;20217;-79
2023/01/20 06:15:54;;;;;;;7.50;5.50;;;;;;;7.04;100.00;62725.34;4963772;28;20533;-79
2023/01/20 06:18:22;;;;;;;6.13;4.20;;;;;;;7.15;100.00;62736.16;4955706;29;20359;-79
2023/01/20 06:20:49;;;;;;;4.03;3.65;;;;;;;7.08;100.00;62728.94;4954276;29;20260;-79
2023/01/20 06:23:19;;;;;;;4.18;3.78;;;;;;;7.00;100.00;62715.63;4953736;29;20209;-80
2023/01/20 06:25:46;;;;;;;2.40;2.30;;;;;;;6.87;100.00;62710.31;4953846;29;20256;-80
2023/01/20 06:28:13;;;;;;;2.40;1.38;;;;;;;6.76;100.00;62691.41;4953746;29;20240;-79
2023/01/20 06:30:41;;;;;;;2.60;1.70;;;;;;;6.83;100.00;62706.19;4953726;29;20245;-79
2023/01/20 06:33:09;;;;;;;2.03;1.83;;;;;;;6.93;100.00;62716.53;4954430;29;20196;-79
2023/01/20 06:35:37;;;;;;;2.70;1.63;;;;;;;7.00;100.00;62718.16;4953579;29;20229;-79
2023/01/20 06:38:04;;;;;;;8.35;3.67;;;;;;;6.89;100.00;62704.81;4952566;29;20221;-79
2023/01/20 06:40:32;;;;;;;2.50;2.30;;;;;;;6.97;100.00;62715.06;4945717;29;20210;-79
2023/01/20 06:42:59;;;;;;;2.42;2.33;;;;;;;6.92;100.00;62715.50;4943749;29;20257;-80
2023/01/20 06:45:27;;;;;;;2.75;2.00;;;;;;;6.91;100.00;62711.94;4951715;29;20597;-78
2023/01/20 06:47:54;;;;;;;1.30;1.30;;;;;;;6.79;100.00;62699.03;4951669;29;20230;-79
2023/01/20 06:50:21;;;;;;;0.95;0.95;;;;;;;6.51;100.00;62670.66;4949662;29;20240;-77
2023/01/20 06:52:48;;;;;;;1.08;1.08;;;;;;;6.45;100.00;62664.50;4950357;29;20251;-80
2023/01/20 06:55:15;;;;;;;1.33;1.23;;;;;;;6.45;100.00;62667.03;4953791;29;20209;-79
2023/01/20 06:57:43;;;;;;;1.77;1.70;;;;;;;6.29;100.00;62642.94;4951493;29;20249;-80
2023/01/20 07:00:11;;;;;;;1.83;1.70;;;;;;;6.21;100.00;62639.22;4952226;29;20257;-80
2023/01/20 07:02:38;;;;;;;3.55;2.63;;;;;;;6.19;100.00;62634.63;4952312;29;20546;-80
2023/01/20 07:05:07;;;;;;;4.25;1.90;;;;;;;6.12;100.00;62629.94;4952299;29;20247;-80
2023/01/20 07:07:34;;;;;;;4.20;3.47;;;;;;;6.09;100.00;62631.91;4954194;29;20259;-79
2023/01/20 07:10:01;;;;;;;3.03;2.67;;;;;;;6.08;100.00;62623.28;4953545;29;20205;-81
2023/01/20 07:12:27;;;;;;;2.95;2.75;;;;;;;6.10;100.00;62627.88;4935640;29;20226;-79
2023/01/20 07:14:56;;;;;;;4.00;2.63;;;;;;;6.07;100.00;62622.78;4938612;29;20217;-79
2023/01/20 07:17:23;;;;;;;2.20;2.10;;;;;;;5.95;100.00;62607.38;4953607;29;20225;-81
2023/01/20 07:19:50;;;;;;;2.15;1.95;;;;;;;6.01;100.00;62616.06;4951872;29;20205;-79
2023/01/20 07:22:17;;;;;;;2.33;2.13;;;;;;;6.01;100.00;62613.53;4955704;29;20235;-80
2023/01/20 07:24:44;;;;;;;2.10;2.00;;;;;;;6.13;100.00;62625.91;4946714;29;20452;-81
2023/01/20 07:27:11;;;;;;;3.22;2.25;;;;;;;6.04;100.00;62624.72;4953641;29;20221;-82
2023/01/20 07:29:39;;;;;;;2.33;2.22;;;;;;;6.02;100.00;62617.63;4963554;29;20200;-78
2023/01/20 07:32:08;;;;;;;1.90;1.80;;;;;;;5.96;100.00;62611.44;4968059;28;20212;-79
2023/01/20 07:34:35;;;;;;;4.07;2.00;;;;;;;5.93;100.00;62610.38;4951576;29;20201;-81
2023/01/20 07:37:01;;;;;;;3.83;1.42;;;;;;;5.96;100.00;62616.50;4965763;28;20302;-81
2023/01/20 07:39:28;;;;;;;2.40;1.48;;;;;;;6.08;100.00;62628.88;4962699;29;20205;-80
2023/01/20 07:41:56;;;;;;;4.25;1.63;;;;;;;6.13;100.00;62628.97;4965614;29;20221;-81
2023/01/20 07:44:22;;;;;;;1.88;1.77;;;;;;;6.25;100.00;62640.81;4958492;28;20247;-79
2023/01/20 07:46:50;;;;;;;1.38;1.27;;;;;;;6.26;100.00;62644.91;4960848;29;20453;-82
2023/01/20 07:49:18;;;;;;;0.60;0.60;;;;;;;6.30;100.00;62645.97;4960883;29;20243;-79
2023/01/20 07:51:45;;;;;;;0.60;0.60;;;;;;;6.36;100.00;62662.28;4964337;28;20220;-81
2023/01/20 07:54:12;;;;;;;1.42;0.77;;;;;;;6.45;100.00;62666.50;4952285;29;20218;-80
2023/01/20 07:56:39;;;;;;;0.70;0.68;;;;;;;6.47;100.00;62666.53;4951197;29;20225;-83
2023/01/20 07:59:06;;;;;;;0.93;0.93;;;;;;;6.58;100.00;62679.91;4957004;29;20433;-82
2023/01/20 08:01:33;;;;;;;1.38;1.27;;;;;;;6.78;100.00;62698.50;4952258;29;20234;-84
2023/01/20 08:04:01;;;;;;;1.25;1.15;;;;;;;6.83;100.00;62700.63;4956264;28;20209;-81
2023/01/20 08:06:30;;;;;;;1.08;1.08;;;;;;;6.90;100.00;62703.28;4959850;29;20231;-83
2023/01/20 08:09:00;;;;;;;1.33;1.23;;;;;;;7.02;100.00;62722.75;4954070;29;20204;-83
2023/01/20 08:11:28;;;;;;;3.92;3.60;;;;;;;7.12;100.00;62733.09;4960491;28;20267;-85
2023/01/20 08:13:57;;;;;;;4.32;3.92;;;;;;;7.17;100.00;62737.72;4966285;28;20213;-83
2023/01/20 08:16:24;;;;;;;12.07;8.50;;;;;;;7.09;100.00;62727.47;4965800;29;20261;-83
2023/01/20 08:18:54;;;;;;;6.38;5.65;;;;;;;6.84;100.00;62707.25;4956467;29;20220;-83
2023/01/20 08:21:23;;;;;;;1.40;1.30;;;;;;;6.83;100.00;62701.13;4958286;29;20225;-84
2023/01/20 08:23:52;;;;;;;0.68;0.68;;;;;;;6.72;100.00;62694.34;4964157;29;20292;-84
2023/01/20 08:26:19;;;;;;;1.20;0.88;;;;;;;6.80;100.00;62700.56;4970266;28;20572;-82
2023/01/20 08:28:47;;;;;;;0.95;0.95;;;;;;;6.69;100.00;62688.72;4961183;28;20449;-82
2023/01/20 08:31:16;;;;;;;0.70;0.70;;;;;;;6.71;100.00;62693.31;4964117;28;20238;-81
2023/01/20 08:33:44;;;;;;;1.10;1.10;;;;;;;6.62;100.00;62678.97;4958515;29;20224;-83
2023/01/20 08:36:13;;;;;;;0.77;0.77;;;;;;;6.65;100.00;62684.59;4955787;29;20236;-79
2023/01/20 08:38:43;;;;;;;1.38;1.20;;;;;;;6.71;100.00;62688.25;4973469;28;20208;-81
2023/01/20 08:41:13;;;;;;;1.70;1.60;;;;;;;6.84;100.00;62704.72;4963127;29;20216;-81
2023/01/20 08:43:40;;;;;;;1.17;1.17;;;;;;;6.95;100.00;62715.53;4973179;29;20197;-80
2023/01/20 08:46:09;;;;;;;0.90;0.90;;;;;;;7.06;100.00;62726.88;4973076;29;20273;-80
2023/01/20 08:48:37;;;;;;;0.95;0.90;;;;;;;7.09;100.00;62732.00;4972314;28;20228;-81
2023/01/20 08:51:06;;;;;;;1.52;1.33;;;;;;;7.12;100.00;62733.09;4972320;29;20257;-81
2023/01/20 08:53:33;;;;;;;1.40;1.40;;;;;;;7.22;100.00;62742.88;4971723;28;20208;-78
2023/01/20 08:56:01;;;;;;;1.60;1.50;;;;;;;7.31;100.00;62752.69;4969764;29;20256;-79
2023/01/20 08:58:30;;;;;;;1.42;1.40;;;;;;;7.46;100.00;62763.09;4971026;29;20204;-80
2023/01/20 09:00:57;;;;;;;1.15;1.05;;;;;;;7.52;100.00;62774.38;4969082;29;20224;-79
2023/01/20 09:03:23;;;;;;;1.25;1.02;;;;;;;7.67;100.00;62789.31;4970055;29;20412;-80
2023/01/20 09:05:54;;;;;;;1.05;1.05;;;;;;;7.87;100.00;62809.97;4968431;29;20236;-81
2023/01/20 09:08:22;;;;;;;0.52;0.52;;;;;;;8.01;100.00;62822.41;4969846;29;20402;-82
2023/01/20 09:10:49;;;;;;;1.92;1.17;;;;;;;7.86;100.00;62812.00;4967841;28;20213;-79
2023/01/20 09:13:16;;;;;;;2.83;0.43;;;;;;;7.83;100.00;62803.31;4964169;29;20216;-80
2023/01/20 09:15:50;;;;;;;0.70;0.63;;;;;;;7.89;100.00;62809.50;4969379;29;20209;-80
2023/01/20 09:18:18;;;;;;;0.57;0.57;;;;;;;8.10;100.00;62831.19;4970840;29;20216;-79
2023/01/20 09:20:45;;;;;;;0.28;0.28;;;;;;;8.12;100.00;62835.78;4970186;29;20400;-79
2023/01/20 09:23:12;;;;;;;3.08;1.20;;;;;;;8.26;100.00;62852.81;4970870;29;20220;-80
2023/01/20 09:25:45;;;;;;;6.78;1.58;;;;;;;8.49;100.00;62873.50;4960574;29;20243;-81
2023/01/20 09:28:13;;;;;;;1.90;1.17;;;;;;;8.49;100.00;62876.56;4951825;29;20277;-81
2023/01/20 09:30:41;;;;;;;1.58;1.48;;;;;;;8.83;100.00;62908.63;4955029;29;20188;-80
2023/01/20 09:33:10;;;;;;;1.10;1.10;;;;;;;8.82;100.00;62910.66;4970299;29;20211;-81
2023/01/20 09:35:37;;;;;;;1.23;1.23;;;;;;;8.93;100.00;62918.97;4969847;29;20201;-79
2023/01/20 09:43:55;;;;;;;0.50;0.50;;;;;;;9.03;100.00;62929.31;4966966;29;20197;-80
2023/01/20 09:46:32;;;;;;;2.13;1.42;;;;;;;9.06;100.00;62932.41;4951128;29;20240;-80
2023/01/20 09:54:58;;;;;;;1.17;1.10;;;;;;;9.18;100.00;62942.28;4971699;29;20239;-79
2023/01/20 09:57:33;;;;;;;1.05;1.00;;;;;;;9.50;100.00;62977.38;4954817;29;20233;-82
2023/01/20 10:00:06;;;;;;;1.95;1.30;;;;;;;9.76;100.00;63002.25;4954781;29;20204;-80
2023/01/20 10:03:09;;;;;;;0.90;0.90;;;;;;;9.89;100.00;63015.69;4973465;29;20252;-81
2023/01/20 10:05:40;;;;;;;1.15;1.05;;;;;;;9.90;100.00;63024.34;4954578;29;20241;-80
2023/01/20 10:08:14;;;;;;;5.63;3.80;;;;;;;9.79;100.00;63010.44;4958868;29;20216;-81
2023/01/20 10:10:47;;;;;;;1.27;0.98;;;;;;;9.95;100.00;63019.34;4974566;29;20253;-82
2023/01/20 10:13:20;;;;;;;0.40;0.40;;;;;;;10.04;100.00;63038.31;4972717;28;20420;-79
2023/01/20 10:15:50;;;;;;;1.23;0.35;;;;;;;10.20;100.00;63052.88;4957629;29;20206;-80
2023/01/20 10:18:24;;;;;;;2.17;0.82;;;;;;;10.40;100.00;63070.50;4955730;29;20616;-79
2023/01/20 10:20:59;;;;;;;0.47;0.47;;;;;;;10.50;100.00;63080.84;4954211;29;20198;-81
2023/01/20 10:23:30;;;;;;;0.55;0.55;;;;;;;10.56;100.00;63084.50;4962839;29;20306;-81
2023/01/20 10:26:04;;;;;;;0.85;0.80;;;;;;;10.60;100.00;63090.66;4959181;29;20241;-81
2023/01/20 10:28:36;;;;;;;0.60;0.60;;;;;;;10.86;100.00;63118.09;4953911;29;20216;-81
2023/01/20 10:31:05;;;;;;;2.28;1.52;;;;;;;11.14;100.00;63141.50;4964575;29;20233;-80
2023/01/20 10:33:37;;;;;;;0.70;0.70;;;;;;;11.33;100.00;63166.78;4973834;28;20205;-81
2023/01/20 10:36:12;;;;;;;0.32;0.32;;;;;;;11.11;100.00;63146.53;4972849;29;20233;-81
2023/01/20 10:38:48;;;;;;;0.25;0.25;;;;;;;11.21;100.00;63148.75;4970997;29;20212;-80
2023/01/20 10:42:12;;;;;;;0.10;0.10;;;;;;;11.07;100.00;63141.88;4974599;29;20427;-82
2023/01/20 10:44:39;;;;;;;0.80;0.45;;;;;;;11.20;100.00;63155.34;4955520;29;20240;-79
2023/01/20 10:47:16;;;;;;;0.52;0.40;;;;;;;11.30;100.00;63163.66;4975361;29;20256;-81
2023/01/20 10:50:03;;;;;;;1.02;0.90;;;;;;;11.23;100.00;63161.50;4972400;29;20204;-81
2023/01/20 10:52:51;;;;;;;1.45;1.35;;;;;;;11.09;100.00;63141.94;4972854;29;20224;-80
2023/01/20 10:55:29;;;;;;;0.80;0.80;;;;;;;10.95;100.00;63129.97;4966939;29;20219;-81
2023/01/20 10:58:02;;;;;;;3.08;1.40;;;;;;;10.75;100.00;63108.75;4954396;29;20554;-82
2023/01/20 11:00:31;;;;;;;0.47;0.47;;;;;;;10.69;100.00;63100.00;4959431;29;20252;-80
2023/01/20 11:03:01;;;;;;;0.47;0.47;;;;;;;10.46;100.00;63074.16;4962727;29;20241;-80
2023/01/20 11:05:31;;;;;;;1.20;0.90;;;;;;;10.38;100.00;63068.44;4959793;29;20213;-79
2023/01/20 11:08:02;;;;;;;1.13;1.00;;;;;;;10.07;100.00;63031.25;4962244;29;20602;-81
2023/01/20 11:10:32;;;;;;;2.55;1.92;;;;;;;9.70;100.00;63001.13;4961827;29;20287;-81
2023/01/20 11:13:02;;;;;;;2.00;1.73;;;;;;;9.42;100.00;62972.19;4971581;28;20237;-80
2023/01/20 11:15:31;;;;;;;1.65;1.55;;;;;;;9.02;100.00;62928.28;4961516;29;20201;-80
2023/01/20 11:18:25;;;;;;;3.10;2.15;;;;;;;8.67;100.00;62892.09;4967641;29;20251;-82
2023/01/20 11:20:55;;;;;;;2.25;2.05;;;;;;;8.67;100.00;62892.09;4962133;29;20435;-81
2023/01/20 11:23:32;;;;;;;3.78;2.40;;;;;;;8.60;100.00;62887.41;4966244;29;20280;-81
2023/01/20 11:26:01;;;;;;;2.80;2.60;;;;;;;8.49;100.00;62876.06;4960648;29;20252;-81
2023/01/20 11:28:36;;;;;;;5.70;3.20;;;;;;;8.39;100.00;62868.75;4960913;29;20205;-82
2023/01/20 11:31:04;;;;;;;3.80;3.00;;;;;;;8.33;100.00;62859.50;4963976;29;20223;-81
2023/01/20 11:33:31;;;;;;;4.68;3.80;;;;;;;8.35;100.00;62859.56;4964576;28;20201;-82
2023/01/20 11:36:00;;;;;;;5.50;4.10;;;;;;;8.22;100.00;62843.56;4959546;29;20245;-81
2023/01/20 11:38:31;;;;;;;9.43;4.65;;;;;;;7.92;100.00;62810.56;4972809;28;20193;-81
2023/01/20 11:40:58;;;;;;;7.20;4.45;;;;;;;7.77;100.00;62797.09;4972488;28;20268;-81
2023/01/20 11:43:34;;;;;;;4.95;4.45;;;;;;;7.85;100.00;62805.88;4972583;29;20490;-80
2023/01/20 11:46:23;;;;;;;6.15;4.68;;;;;;;7.85;100.00;62805.88;4972080;29;20295;-81
2023/01/20 11:48:50;;;;;;;8.45;7.05;;;;;;;7.82;100.00;62807.34;4962255;29;20205;-81
2023/01/20 11:51:20;;;;;;;7.05;6.45;;;;;;;7.75;100.00;62800.09;4972058;28;20231;-80
2023/01/20 11:53:49;;;;;;;8.45;6.82;;;;;;;7.71;100.00;62790.91;4968980;29;20220;-81
2023/01/20 11:56:19;;;;;;;9.02;7.03;;;;;;;7.94;100.00;62822.78;4965956;29;20232;-81